sensor_id;sensor_type;location;lat;lon;timestamp;P1;durP1;ratioP1;P2;durP2;ratioP2
40951;SDS011;26682;51.660;19.338;2023-08-31T00:00:00;9.55;;;8.57;;
40951;SDS011;26682;51.660;19.338;2023-08-31T00:02:47;9.05;;;8.15;;
40951;SDS011;26682;51.660;19.338;2023-08-31T00:05:29;10.98;;;7.72;;
40951;SDS011;26682;51.660;19.338;2023-08-31T00:08:13;8.77;;;7.50;;
40951;SDS011;26682;51.660;19.338;2023-08-31T00:10:56;8.77;;;7.35;;
40951;SDS011;26682;51.660;19.338;2023-08-31T00:13:39;8.10;;;7.30;;
40951;SDS011;26682;51.660;19.338;2023-08-31T00:16:25;8.18;;;6.70;;
40951;SDS011;26682;51.660;19.338;2023-08-31T00:21:50;9.82;;;7.55;;
40951;SDS011;26682;51.660;19.338;2023-08-31T00:24:33;9.27;;;6.93;;
40951;SDS011;26682;51.660;19.338;2023-08-31T00:27:18;7.57;;;6.88;;
40951;SDS011;26682;51.660;19.338;2023-08-31T00:30:06;10.73;;;7.38;;
40951;SDS011;26682;51.660;19.338;2023-08-31T00:32:53;7.40;;;6.30;;
40951;SDS011;26682;51.660;19.338;2023-08-31T00:35:37;7.90;;;7.10;;
40951;SDS011;26682;51.660;19.338;2023-08-31T00:38:19;8.48;;;6.97;;
40951;SDS011;26682;51.660;19.338;2023-08-31T00:41:02;7.20;;;6.32;;
40951;SDS011;26682;51.660;19.338;2023-08-31T00:43:44;8.73;;;7.32;;
40951;SDS011;26682;51.660;19.338;2023-08-31T00:46:27;7.70;;;6.47;;
40951;SDS011;26682;51.660;19.338;2023-08-31T00:49:09;7.30;;;6.60;;
40951;SDS011;26682;51.660;19.338;2023-08-31T00:51:52;8.05;;;6.82;;
40951;SDS011;26682;51.660;19.338;2023-08-31T00:54:35;8.05;;;7.00;;
40951;SDS011;26682;51.660;19.338;2023-08-31T00:57:18;8.00;;;7.30;;
40951;SDS011;26682;51.660;19.338;2023-08-31T01:00:02;7.43;;;6.72;;
40951;SDS011;26682;51.660;19.338;2023-08-31T01:05:46;9.40;;;7.05;;
40951;SDS011;26682;51.660;19.338;2023-08-31T01:14:47;10.25;;;8.13;;
40951;SDS011;26682;51.660;19.338;2023-08-31T01:17:44;8.50;;;7.65;;
40951;SDS011;26682;51.660;19.338;2023-08-31T01:20:34;9.45;;;8.20;;
40951;SDS011;26682;51.660;19.338;2023-08-31T01:23:24;9.48;;;8.55;;
40951;SDS011;26682;51.660;19.338;2023-08-31T01:26:18;9.00;;;8.18;;
40951;SDS011;26682;51.660;19.338;2023-08-31T01:29:04;12.32;;;8.38;;
40951;SDS011;26682;51.660;19.338;2023-08-31T01:31:47;10.25;;;8.80;;
40951;SDS011;26682;51.660;19.338;2023-08-31T01:34:29;9.90;;;8.88;;
40951;SDS011;26682;51.660;19.338;2023-08-31T01:37:15;9.63;;;8.73;;
40951;SDS011;26682;51.660;19.338;2023-08-31T01:40:08;10.65;;;9.57;;
40951;SDS011;26682;51.660;19.338;2023-08-31T01:42:53;9.52;;;8.60;;
40951;SDS011;26682;51.660;19.338;2023-08-31T01:45:37;12.90;;;9.93;;
40951;SDS011;26682;51.660;19.338;2023-08-31T01:48:20;13.25;;;9.40;;
40951;SDS011;26682;51.660;19.338;2023-08-31T01:51:03;13.15;;;9.85;;
40951;SDS011;26682;51.660;19.338;2023-08-31T01:53:47;10.85;;;9.48;;
40951;SDS011;26682;51.660;19.338;2023-08-31T01:56:30;11.05;;;9.95;;
40951;SDS011;26682;51.660;19.338;2023-08-31T01:59:13;11.15;;;9.93;;
40951;SDS011;26682;51.660;19.338;2023-08-31T02:01:56;11.70;;;10.35;;
40951;SDS011;26682;51.660;19.338;2023-08-31T02:04:39;21.77;;;10.55;;
40951;SDS011;26682;51.660;19.338;2023-08-31T02:07:22;12.02;;;10.02;;
40951;SDS011;26682;51.660;19.338;2023-08-31T02:10:04;15.60;;;11.15;;
40951;SDS011;26682;51.660;19.338;2023-08-31T02:12:49;12.07;;;10.65;;
40951;SDS011;26682;51.660;19.338;2023-08-31T02:15:31;13.43;;;9.82;;
40951;SDS011;26682;51.660;19.338;2023-08-31T02:18:14;11.25;;;10.25;;
40951;SDS011;26682;51.660;19.338;2023-08-31T02:20:56;12.15;;;10.30;;
40951;SDS011;26682;51.660;19.338;2023-08-31T02:23:39;10.80;;;9.75;;
40951;SDS011;26682;51.660;19.338;2023-08-31T02:26:22;12.98;;;10.05;;
40951;SDS011;26682;51.660;19.338;2023-08-31T02:29:04;12.43;;;10.70;;
40951;SDS011;26682;51.660;19.338;2023-08-31T02:31:47;11.40;;;10.40;;
40951;SDS011;26682;51.660;19.338;2023-08-31T02:34:30;12.00;;;10.85;;
40951;SDS011;26682;51.660;19.338;2023-08-31T02:37:12;12.27;;;11.05;;
40951;SDS011;26682;51.660;19.338;2023-08-31T02:39:55;14.23;;;11.57;;
40951;SDS011;26682;51.660;19.338;2023-08-31T02:42:37;14.35;;;12.85;;
40951;SDS011;26682;51.660;19.338;2023-08-31T02:45:21;17.05;;;12.10;;
40951;SDS011;26682;51.660;19.338;2023-08-31T02:48:08;14.05;;;12.63;;
40951;SDS011;26682;51.660;19.338;2023-08-31T02:50:52;15.73;;;13.25;;
40951;SDS011;26682;51.660;19.338;2023-08-31T02:53:34;14.77;;;13.27;;
40951;SDS011;26682;51.660;19.338;2023-08-31T02:56:17;15.15;;;13.32;;
40951;SDS011;26682;51.660;19.338;2023-08-31T02:58:59;14.25;;;12.77;;
40951;SDS011;26682;51.660;19.338;2023-08-31T03:01:42;14.55;;;13.10;;
40951;SDS011;26682;51.660;19.338;2023-08-31T03:04:28;15.35;;;13.82;;
40951;SDS011;26682;51.660;19.338;2023-08-31T03:07:11;16.17;;;13.43;;
40951;SDS011;26682;51.660;19.338;2023-08-31T03:09:55;15.77;;;13.75;;
40951;SDS011;26682;51.660;19.338;2023-08-31T03:12:38;15.00;;;12.88;;
40951;SDS011;26682;51.660;19.338;2023-08-31T03:15:20;14.30;;;12.88;;
40951;SDS011;26682;51.660;19.338;2023-08-31T03:18:04;16.33;;;12.98;;
40951;SDS011;26682;51.660;19.338;2023-08-31T03:20:47;14.75;;;12.95;;
40951;SDS011;26682;51.660;19.338;2023-08-31T03:23:30;15.82;;;12.57;;
40951;SDS011;26682;51.660;19.338;2023-08-31T03:26:12;17.58;;;13.27;;
40951;SDS011;26682;51.660;19.338;2023-08-31T03:28:55;13.20;;;11.85;;
40951;SDS011;26682;51.660;19.338;2023-08-31T03:31:37;14.55;;;11.95;;
40951;SDS011;26682;51.660;19.338;2023-08-31T03:34:20;17.35;;;12.80;;
40951;SDS011;26682;51.660;19.338;2023-08-31T03:37:02;15.32;;;13.38;;
40951;SDS011;26682;51.660;19.338;2023-08-31T03:39:50;14.38;;;12.27;;
40951;SDS011;26682;51.660;19.338;2023-08-31T03:42:33;16.10;;;12.52;;
40951;SDS011;26682;51.660;19.338;2023-08-31T03:45:17;12.98;;;11.68;;
40951;SDS011;26682;51.660;19.338;2023-08-31T03:48:00;13.15;;;11.82;;
40951;SDS011;26682;51.660;19.338;2023-08-31T03:50:44;14.70;;;13.13;;
40951;SDS011;26682;51.660;19.338;2023-08-31T03:53:30;12.95;;;11.75;;
40951;SDS011;26682;51.660;19.338;2023-08-31T03:56:13;15.00;;;13.20;;
40951;SDS011;26682;51.660;19.338;2023-08-31T03:58:56;21.10;;;14.88;;
40951;SDS011;26682;51.660;19.338;2023-08-31T04:01:39;18.17;;;13.98;;
40951;SDS011;26682;51.660;19.338;2023-08-31T04:04:21;19.58;;;12.95;;
40951;SDS011;26682;51.660;19.338;2023-08-31T04:07:04;18.33;;;16.17;;
40951;SDS011;26682;51.660;19.338;2023-08-31T04:09:48;17.50;;;15.77;;
40951;SDS011;26682;51.660;19.338;2023-08-31T04:12:30;18.67;;;15.93;;
40951;SDS011;26682;51.660;19.338;2023-08-31T04:15:13;17.20;;;14.10;;
40951;SDS011;26682;51.660;19.338;2023-08-31T04:17:56;21.08;;;16.13;;
40951;SDS011;26682;51.660;19.338;2023-08-31T04:20:38;18.05;;;15.68;;
40951;SDS011;26682;51.660;19.338;2023-08-31T04:23:33;21.05;;;18.40;;
40951;SDS011;26682;51.660;19.338;2023-08-31T04:26:15;34.50;;;30.25;;
40951;SDS011;26682;51.660;19.338;2023-08-31T04:28:59;21.92;;;18.67;;
40951;SDS011;26682;51.660;19.338;2023-08-31T04:31:41;18.67;;;15.60;;
40951;SDS011;26682;51.660;19.338;2023-08-31T04:34:24;18.42;;;16.55;;
40951;SDS011;26682;51.660;19.338;2023-08-31T04:37:07;22.08;;;19.77;;
40951;SDS011;26682;51.660;19.338;2023-08-31T04:39:50;28.92;;;23.17;;
40951;SDS011;26682;51.660;19.338;2023-08-31T04:42:32;26.25;;;23.85;;
40951;SDS011;26682;51.660;19.338;2023-08-31T04:45:16;19.52;;;17.67;;
40951;SDS011;26682;51.660;19.338;2023-08-31T04:47:59;23.80;;;20.45;;
40951;SDS011;26682;51.660;19.338;2023-08-31T04:50:41;17.17;;;14.50;;
40951;SDS011;26682;51.660;19.338;2023-08-31T04:53:24;13.27;;;11.95;;
40951;SDS011;26682;51.660;19.338;2023-08-31T04:56:07;16.70;;;14.50;;
40951;SDS011;26682;51.660;19.338;2023-08-31T04:58:49;14.48;;;12.18;;
40951;SDS011;26682;51.660;19.338;2023-08-31T05:01:32;19.13;;;13.90;;
40951;SDS011;26682;51.660;19.338;2023-08-31T05:04:14;21.77;;;17.13;;
40951;SDS011;26682;51.660;19.338;2023-08-31T05:06:57;13.77;;;12.38;;
40951;SDS011;26682;51.660;19.338;2023-08-31T05:09:39;17.48;;;12.65;;
40951;SDS011;26682;51.660;19.338;2023-08-31T05:12:22;16.05;;;13.55;;
40951;SDS011;26682;51.660;19.338;2023-08-31T05:15:04;16.92;;;12.35;;
40951;SDS011;26682;51.660;19.338;2023-08-31T05:17:47;19.15;;;15.48;;
40951;SDS011;26682;51.660;19.338;2023-08-31T05:20:30;11.60;;;10.43;;
40951;SDS011;26682;51.660;19.338;2023-08-31T05:23:13;17.23;;;14.98;;
40951;SDS011;26682;51.660;19.338;2023-08-31T05:25:55;15.55;;;11.48;;
40951;SDS011;26682;51.660;19.338;2023-08-31T05:28:42;14.55;;;12.50;;
40951;SDS011;26682;51.660;19.338;2023-08-31T05:31:25;15.40;;;11.70;;
40951;SDS011;26682;51.660;19.338;2023-08-31T05:34:09;19.48;;;14.98;;
40951;SDS011;26682;51.660;19.338;2023-08-31T05:36:51;14.35;;;11.65;;
40951;SDS011;26682;51.660;19.338;2023-08-31T05:39:34;11.57;;;10.50;;
40951;SDS011;26682;51.660;19.338;2023-08-31T05:42:16;11.30;;;9.93;;
40951;SDS011;26682;51.660;19.338;2023-08-31T05:45:00;14.85;;;12.80;;
40951;SDS011;26682;51.660;19.338;2023-08-31T05:47:42;10.68;;;9.27;;
40951;SDS011;26682;51.660;19.338;2023-08-31T05:50:25;12.68;;;10.00;;
40951;SDS011;26682;51.660;19.338;2023-08-31T05:53:08;13.10;;;10.70;;
40951;SDS011;26682;51.660;19.338;2023-08-31T05:55:51;9.73;;;8.15;;
40951;SDS011;26682;51.660;19.338;2023-08-31T05:58:36;14.23;;;10.05;;
40951;SDS011;26682;51.660;19.338;2023-08-31T06:01:19;12.48;;;8.05;;
40951;SDS011;26682;51.660;19.338;2023-08-31T06:04:01;17.85;;;9.55;;
40951;SDS011;26682;51.660;19.338;2023-08-31T06:06:45;9.07;;;7.80;;
40951;SDS011;26682;51.660;19.338;2023-08-31T06:09:28;9.38;;;7.57;;
40951;SDS011;26682;51.660;19.338;2023-08-31T06:12:11;11.52;;;7.35;;
40951;SDS011;26682;51.660;19.338;2023-08-31T06:14:53;8.82;;;7.20;;
40951;SDS011;26682;51.660;19.338;2023-08-31T06:17:36;11.20;;;10.10;;
40951;SDS011;26682;51.660;19.338;2023-08-31T06:20:18;10.20;;;8.15;;
40951;SDS011;26682;51.660;19.338;2023-08-31T06:23:02;10.20;;;7.03;;
40951;SDS011;26682;51.660;19.338;2023-08-31T06:25:44;8.77;;;6.75;;
40951;SDS011;26682;51.660;19.338;2023-08-31T06:28:28;12.10;;;7.63;;
40951;SDS011;26682;51.660;19.338;2023-08-31T06:31:10;8.25;;;6.15;;
40951;SDS011;26682;51.660;19.338;2023-08-31T06:33:53;6.38;;;5.78;;
40951;SDS011;26682;51.660;19.338;2023-08-31T06:36:35;10.20;;;6.78;;
40951;SDS011;26682;51.660;19.338;2023-08-31T06:39:18;13.07;;;10.32;;
40951;SDS011;26682;51.660;19.338;2023-08-31T06:42:01;5.70;;;5.07;;
40951;SDS011;26682;51.660;19.338;2023-08-31T06:44:45;9.20;;;5.07;;
40951;SDS011;26682;51.660;19.338;2023-08-31T06:47:28;10.45;;;6.43;;
40951;SDS011;26682;51.660;19.338;2023-08-31T06:50:10;5.43;;;4.78;;
40951;SDS011;26682;51.660;19.338;2023-08-31T06:52:53;5.40;;;4.50;;
40951;SDS011;26682;51.660;19.338;2023-08-31T06:55:35;6.13;;;4.93;;
40951;SDS011;26682;51.660;19.338;2023-08-31T06:58:18;5.35;;;4.80;;
40951;SDS011;26682;51.660;19.338;2023-08-31T07:01:01;6.40;;;4.20;;
40951;SDS011;26682;51.660;19.338;2023-08-31T07:03:47;5.57;;;3.92;;
40951;SDS011;26682;51.660;19.338;2023-08-31T07:06:31;5.43;;;3.20;;
40951;SDS011;26682;51.660;19.338;2023-08-31T07:09:15;5.43;;;3.30;;
40951;SDS011;26682;51.660;19.338;2023-08-31T07:11:58;8.90;;;3.88;;
40951;SDS011;26682;51.660;19.338;2023-08-31T07:14:40;3.45;;;3.15;;
40951;SDS011;26682;51.660;19.338;2023-08-31T07:17:23;8.05;;;4.60;;
40951;SDS011;26682;51.660;19.338;2023-08-31T07:20:06;3.67;;;3.25;;
40951;SDS011;26682;51.660;19.338;2023-08-31T07:22:49;5.57;;;3.28;;
40951;SDS011;26682;51.660;19.338;2023-08-31T07:25:32;6.18;;;3.72;;
40951;SDS011;26682;51.660;19.338;2023-08-31T07:28:14;6.68;;;3.00;;
40951;SDS011;26682;51.660;19.338;2023-08-31T07:31:04;4.65;;;2.80;;
40951;SDS011;26682;51.660;19.338;2023-08-31T07:33:47;5.10;;;2.70;;
40951;SDS011;26682;51.660;19.338;2023-08-31T07:36:30;3.97;;;2.50;;
40951;SDS011;26682;51.660;19.338;2023-08-31T07:39:12;3.50;;;2.67;;
40951;SDS011;26682;51.660;19.338;2023-08-31T07:41:55;3.33;;;2.40;;
40951;SDS011;26682;51.660;19.338;2023-08-31T07:44:38;3.60;;;2.60;;
40951;SDS011;26682;51.660;19.338;2023-08-31T07:47:20;4.25;;;2.97;;
40951;SDS011;26682;51.660;19.338;2023-08-31T07:50:03;7.70;;;3.25;;
40951;SDS011;26682;51.660;19.338;2023-08-31T07:52:45;3.80;;;2.47;;
40951;SDS011;26682;51.660;19.338;2023-08-31T07:55:28;5.28;;;3.05;;
40951;SDS011;26682;51.660;19.338;2023-08-31T07:58:10;5.30;;;2.80;;
40951;SDS011;26682;51.660;19.338;2023-08-31T08:00:53;6.72;;;3.33;;
40951;SDS011;26682;51.660;19.338;2023-08-31T08:06:22;2.00;;;1.90;;
40951;SDS011;26682;51.660;19.338;2023-08-31T08:09:04;3.20;;;2.60;;
40951;SDS011;26682;51.660;19.338;2023-08-31T08:11:47;2.95;;;2.30;;
40951;SDS011;26682;51.660;19.338;2023-08-31T08:14:30;3.97;;;2.22;;
40951;SDS011;26682;51.660;19.338;2023-08-31T08:17:12;3.05;;;2.45;;
40951;SDS011;26682;51.660;19.338;2023-08-31T08:19:55;7.20;;;2.40;;
40951;SDS011;26682;51.660;19.338;2023-08-31T08:22:37;3.33;;;2.47;;
40951;SDS011;26682;51.660;19.338;2023-08-31T08:25:20;3.92;;;2.35;;
40951;SDS011;26682;51.660;19.338;2023-08-31T08:28:03;11.85;;;1.92;;
40951;SDS011;26682;51.660;19.338;2023-08-31T08:30:46;3.67;;;1.90;;
40951;SDS011;26682;51.660;19.338;2023-08-31T08:33:29;2.28;;;1.92;;
40951;SDS011;26682;51.660;19.338;2023-08-31T08:36:12;3.90;;;2.08;;
40951;SDS011;26682;51.660;19.338;2023-08-31T08:38:54;4.32;;;2.10;;
40951;SDS011;26682;51.660;19.338;2023-08-31T08:41:37;1.83;;;1.70;;
40951;SDS011;26682;51.660;19.338;2023-08-31T08:44:20;8.70;;;2.05;;
40951;SDS011;26682;51.660;19.338;2023-08-31T08:47:06;2.00;;;1.53;;
40951;SDS011;26682;51.660;19.338;2023-08-31T08:49:48;4.53;;;1.90;;
40951;SDS011;26682;51.660;19.338;2023-08-31T08:52:32;7.05;;;2.40;;
40951;SDS011;26682;51.660;19.338;2023-08-31T08:55:15;2.17;;;1.98;;
40951;SDS011;26682;51.660;19.338;2023-08-31T08:57:59;3.60;;;2.00;;
40951;SDS011;26682;51.660;19.338;2023-08-31T09:00:42;1.98;;;1.77;;
40951;SDS011;26682;51.660;19.338;2023-08-31T09:03:28;9.77;;;2.45;;
40951;SDS011;26682;51.660;19.338;2023-08-31T09:06:10;6.85;;;1.95;;
40951;SDS011;26682;51.660;19.338;2023-08-31T09:08:56;5.55;;;2.50;;
40951;SDS011;26682;51.660;19.338;2023-08-31T09:11:39;3.75;;;2.20;;
40951;SDS011;26682;51.660;19.338;2023-08-31T09:14:21;2.65;;;2.15;;
40951;SDS011;26682;51.660;19.338;2023-08-31T09:17:04;3.45;;;2.10;;
40951;SDS011;26682;51.660;19.338;2023-08-31T09:19:48;3.20;;;1.67;;
40951;SDS011;26682;51.660;19.338;2023-08-31T09:22:43;3.50;;;2.05;;
40951;SDS011;26682;51.660;19.338;2023-08-31T09:25:26;12.98;;;2.25;;
40951;SDS011;26682;51.660;19.338;2023-08-31T09:28:09;3.65;;;2.35;;
40951;SDS011;26682;51.660;19.338;2023-08-31T09:30:53;2.70;;;1.98;;
40951;SDS011;26682;51.660;19.338;2023-08-31T09:33:51;3.42;;;2.28;;
40951;SDS011;26682;51.660;19.338;2023-08-31T09:36:33;4.72;;;2.50;;
40951;SDS011;26682;51.660;19.338;2023-08-31T09:39:16;5.13;;;2.13;;
40951;SDS011;26682;51.660;19.338;2023-08-31T09:41:59;3.33;;;2.40;;
40951;SDS011;26682;51.660;19.338;2023-08-31T09:44:45;8.80;;;2.30;;
40951;SDS011;26682;51.660;19.338;2023-08-31T09:47:30;9.70;;;3.05;;
40951;SDS011;26682;51.660;19.338;2023-08-31T09:50:13;4.57;;;2.65;;
40951;SDS011;26682;51.660;19.338;2023-08-31T09:52:58;9.98;;;2.85;;
40951;SDS011;26682;51.660;19.338;2023-08-31T09:55:46;2.50;;;2.30;;
40951;SDS011;26682;51.660;19.338;2023-08-31T09:58:32;4.60;;;2.30;;
40951;SDS011;26682;51.660;19.338;2023-08-31T10:01:16;3.85;;;2.78;;
40951;SDS011;26682;51.660;19.338;2023-08-31T10:04:10;9.20;;;3.30;;
40951;SDS011;26682;51.660;19.338;2023-08-31T10:06:54;4.25;;;2.55;;
40951;SDS011;26682;51.660;19.338;2023-08-31T10:09:37;5.68;;;2.55;;
40951;SDS011;26682;51.660;19.338;2023-08-31T10:12:20;7.07;;;2.30;;
40951;SDS011;26682;51.660;19.338;2023-08-31T10:15:03;4.15;;;2.40;;
40951;SDS011;26682;51.660;19.338;2023-08-31T10:17:47;5.70;;;2.25;;
40951;SDS011;26682;51.660;19.338;2023-08-31T10:20:30;4.63;;;2.60;;
40951;SDS011;26682;51.660;19.338;2023-08-31T10:23:13;2.53;;;2.20;;
40951;SDS011;26682;51.660;19.338;2023-08-31T10:28:40;2.92;;;2.22;;
40951;SDS011;26682;51.660;19.338;2023-08-31T10:31:24;2.33;;;2.10;;
40951;SDS011;26682;51.660;19.338;2023-08-31T10:34:14;5.72;;;2.47;;
40951;SDS011;26682;51.660;19.338;2023-08-31T10:36:57;3.08;;;2.13;;
40951;SDS011;26682;51.660;19.338;2023-08-31T10:40:06;2.30;;;2.10;;
40951;SDS011;26682;51.660;19.338;2023-08-31T10:43:13;4.35;;;2.20;;
40951;SDS011;26682;51.660;19.338;2023-08-31T10:45:58;3.83;;;2.40;;
40951;SDS011;26682;51.660;19.338;2023-08-31T10:48:50;3.38;;;2.15;;
40951;SDS011;26682;51.660;19.338;2023-08-31T10:51:49;7.68;;;3.08;;
40951;SDS011;26682;51.660;19.338;2023-08-31T10:54:39;5.60;;;2.15;;
40951;SDS011;26682;51.660;19.338;2023-08-31T10:57:31;6.18;;;2.30;;
40951;SDS011;26682;51.660;19.338;2023-08-31T11:00:33;3.33;;;2.38;;
40951;SDS011;26682;51.660;19.338;2023-08-31T11:03:30;3.88;;;2.58;;
40951;SDS011;26682;51.660;19.338;2023-08-31T11:06:13;4.53;;;2.55;;
40951;SDS011;26682;51.660;19.338;2023-08-31T11:08:56;2.40;;;2.17;;
40951;SDS011;26682;51.660;19.338;2023-08-31T11:11:38;6.93;;;2.75;;
40951;SDS011;26682;51.660;19.338;2023-08-31T11:14:21;6.47;;;2.45;;
40951;SDS011;26682;51.660;19.338;2023-08-31T11:17:03;6.93;;;2.70;;
40951;SDS011;26682;51.660;19.338;2023-08-31T11:19:48;7.68;;;3.20;;
40951;SDS011;26682;51.660;19.338;2023-08-31T11:22:31;4.03;;;3.63;;
40951;SDS011;26682;51.660;19.338;2023-08-31T11:25:15;6.43;;;3.45;;
40951;SDS011;26682;51.660;19.338;2023-08-31T11:27:59;3.90;;;3.50;;
40951;SDS011;26682;51.660;19.338;2023-08-31T11:30:43;9.65;;;3.60;;
40951;SDS011;26682;51.660;19.338;2023-08-31T11:33:31;5.60;;;3.80;;
40951;SDS011;26682;51.660;19.338;2023-08-31T11:36:15;7.07;;;4.20;;
40951;SDS011;26682;51.660;19.338;2023-08-31T11:39:00;5.15;;;3.90;;
40951;SDS011;26682;51.660;19.338;2023-08-31T11:41:45;5.15;;;3.97;;
40951;SDS011;26682;51.660;19.338;2023-08-31T11:44:29;6.93;;;4.90;;
40951;SDS011;26682;51.660;19.338;2023-08-31T11:47:12;6.47;;;4.68;;
40951;SDS011;26682;51.660;19.338;2023-08-31T11:49:56;5.32;;;4.32;;
40951;SDS011;26682;51.660;19.338;2023-08-31T11:52:38;4.80;;;4.25;;
40951;SDS011;26682;51.660;19.338;2023-08-31T11:55:24;4.60;;;4.15;;
40951;SDS011;26682;51.660;19.338;2023-08-31T11:58:07;8.35;;;3.97;;
40951;SDS011;26682;51.660;19.338;2023-08-31T12:00:57;4.68;;;3.85;;
40951;SDS011;26682;51.660;19.338;2023-08-31T12:03:42;5.20;;;3.88;;
40951;SDS011;26682;51.660;19.338;2023-08-31T12:06:31;7.20;;;4.03;;
40951;SDS011;26682;51.660;19.338;2023-08-31T12:09:14;9.50;;;5.60;;
40951;SDS011;26682;51.660;19.338;2023-08-31T12:11:56;5.85;;;3.95;;
40951;SDS011;26682;51.660;19.338;2023-08-31T12:14:39;4.30;;;3.80;;
40951;SDS011;26682;51.660;19.338;2023-08-31T12:17:22;6.72;;;4.35;;
40951;SDS011;26682;51.660;19.338;2023-08-31T12:20:05;12.95;;;6.40;;
40951;SDS011;26682;51.660;19.338;2023-08-31T12:22:49;13.20;;;7.88;;
40951;SDS011;26682;51.660;19.338;2023-08-31T12:25:31;18.98;;;9.65;;
40951;SDS011;26682;51.660;19.338;2023-08-31T12:28:14;11.82;;;9.32;;
40951;SDS011;26682;51.660;19.338;2023-08-31T12:30:57;11.95;;;10.90;;
40951;SDS011;26682;51.660;19.338;2023-08-31T12:33:39;11.55;;;10.57;;
40951;SDS011;26682;51.660;19.338;2023-08-31T12:36:22;13.32;;;10.68;;
40951;SDS011;26682;51.660;19.338;2023-08-31T12:39:04;12.23;;;11.00;;
40951;SDS011;26682;51.660;19.338;2023-08-31T12:41:49;10.93;;;10.02;;
40951;SDS011;26682;51.660;19.338;2023-08-31T12:44:31;9.68;;;8.77;;
40951;SDS011;26682;51.660;19.338;2023-08-31T12:47:14;9.05;;;8.20;;
40951;SDS011;26682;51.660;19.338;2023-08-31T12:49:57;11.55;;;9.10;;
40951;SDS011;26682;51.660;19.338;2023-08-31T12:52:41;9.05;;;8.25;;
40951;SDS011;26682;51.660;19.338;2023-08-31T12:55:30;7.90;;;7.00;;
40951;SDS011;26682;51.660;19.338;2023-08-31T12:58:13;7.72;;;6.95;;
40951;SDS011;26682;51.660;19.338;2023-08-31T13:00:57;7.25;;;6.57;;
40951;SDS011;26682;51.660;19.338;2023-08-31T13:06:24;5.45;;;5.05;;
40951;SDS011;26682;51.660;19.338;2023-08-31T13:09:07;5.90;;;5.22;;
40951;SDS011;26682;51.660;19.338;2023-08-31T13:11:50;4.25;;;3.95;;
40951;SDS011;26682;51.660;19.338;2023-08-31T13:14:34;4.93;;;4.40;;
40951;SDS011;26682;51.660;19.338;2023-08-31T13:17:17;5.05;;;3.97;;
40951;SDS011;26682;51.660;19.338;2023-08-31T13:19:59;4.18;;;3.40;;
40951;SDS011;26682;51.660;19.338;2023-08-31T13:22:43;5.82;;;4.00;;
40951;SDS011;26682;51.660;19.338;2023-08-31T13:25:26;6.15;;;4.70;;
40951;SDS011;26682;51.660;19.338;2023-08-31T13:28:08;4.70;;;4.25;;
40951;SDS011;26682;51.660;19.338;2023-08-31T13:30:55;6.60;;;4.18;;
40951;SDS011;26682;51.660;19.338;2023-08-31T13:33:39;4.43;;;4.03;;
40951;SDS011;26682;51.660;19.338;2023-08-31T13:36:22;5.45;;;4.28;;
40951;SDS011;26682;51.660;19.338;2023-08-31T13:39:04;4.90;;;4.03;;
40951;SDS011;26682;51.660;19.338;2023-08-31T13:41:49;4.38;;;3.97;;
40951;SDS011;26682;51.660;19.338;2023-08-31T13:44:33;4.70;;;4.30;;
40951;SDS011;26682;51.660;19.338;2023-08-31T13:47:17;3.53;;;3.25;;
40951;SDS011;26682;51.660;19.338;2023-08-31T13:50:00;3.03;;;2.83;;
40951;SDS011;26682;51.660;19.338;2023-08-31T13:52:44;2.88;;;2.25;;
40951;SDS011;26682;51.660;19.338;2023-08-31T13:55:26;5.07;;;3.22;;
40951;SDS011;26682;51.660;19.338;2023-08-31T13:58:09;4.63;;;2.80;;
40951;SDS011;26682;51.660;19.338;2023-08-31T14:00:52;3.75;;;2.33;;
40951;SDS011;26682;51.660;19.338;2023-08-31T14:03:35;3.28;;;2.97;;
40951;SDS011;26682;51.660;19.338;2023-08-31T14:06:18;5.72;;;4.30;;
40951;SDS011;26682;51.660;19.338;2023-08-31T14:09:00;2.63;;;2.42;;
40951;SDS011;26682;51.660;19.338;2023-08-31T14:11:43;4.55;;;3.22;;
40951;SDS011;26682;51.660;19.338;2023-08-31T14:14:26;4.28;;;2.17;;
40951;SDS011;26682;51.660;19.338;2023-08-31T14:17:08;2.00;;;1.90;;
40951;SDS011;26682;51.660;19.338;2023-08-31T14:19:51;3.00;;;2.70;;
40951;SDS011;26682;51.660;19.338;2023-08-31T14:22:34;3.55;;;1.92;;
40951;SDS011;26682;51.660;19.338;2023-08-31T14:25:17;3.13;;;2.00;;
40951;SDS011;26682;51.660;19.338;2023-08-31T14:28:00;3.72;;;1.83;;
40951;SDS011;26682;51.660;19.338;2023-08-31T14:30:42;3.85;;;2.10;;
40951;SDS011;26682;51.660;19.338;2023-08-31T14:33:25;2.28;;;2.08;;
40951;SDS011;26682;51.660;19.338;2023-08-31T14:36:08;2.13;;;1.88;;
40951;SDS011;26682;51.660;19.338;2023-08-31T14:38:50;2.90;;;1.60;;
40951;SDS011;26682;51.660;19.338;2023-08-31T14:41:33;2.42;;;2.08;;
40951;SDS011;26682;51.660;19.338;2023-08-31T14:44:15;2.15;;;1.80;;
40951;SDS011;26682;51.660;19.338;2023-08-31T14:46:58;1.70;;;1.60;;
40951;SDS011;26682;51.660;19.338;2023-08-31T14:49:40;5.22;;;1.70;;
40951;SDS011;26682;51.660;19.338;2023-08-31T14:52:23;3.30;;;1.63;;
40951;SDS011;26682;51.660;19.338;2023-08-31T14:55:09;3.30;;;2.30;;
40951;SDS011;26682;51.660;19.338;2023-08-31T14:57:52;3.72;;;2.25;;
40951;SDS011;26682;51.660;19.338;2023-08-31T15:00:35;3.42;;;2.28;;
40951;SDS011;26682;51.660;19.338;2023-08-31T15:03:17;3.35;;;1.88;;
40951;SDS011;26682;51.660;19.338;2023-08-31T15:06:02;5.95;;;2.28;;
40951;SDS011;26682;51.660;19.338;2023-08-31T15:08:45;3.38;;;1.80;;
40951;SDS011;26682;51.660;19.338;2023-08-31T15:11:28;3.25;;;1.90;;
40951;SDS011;26682;51.660;19.338;2023-08-31T15:14:11;2.10;;;1.90;;
40951;SDS011;26682;51.660;19.338;2023-08-31T15:16:53;2.72;;;2.10;;
40951;SDS011;26682;51.660;19.338;2023-08-31T15:19:36;3.28;;;2.00;;
40951;SDS011;26682;51.660;19.338;2023-08-31T15:22:19;1.98;;;1.83;;
40951;SDS011;26682;51.660;19.338;2023-08-31T15:25:01;2.53;;;1.88;;
40951;SDS011;26682;51.660;19.338;2023-08-31T15:27:46;2.15;;;1.75;;
40951;SDS011;26682;51.660;19.338;2023-08-31T15:30:29;2.47;;;2.05;;
40951;SDS011;26682;51.660;19.338;2023-08-31T15:33:11;1.83;;;1.73;;
40951;SDS011;26682;51.660;19.338;2023-08-31T15:36:07;4.53;;;1.80;;
40951;SDS011;26682;51.660;19.338;2023-08-31T15:41:32;4.13;;;1.77;;
40951;SDS011;26682;51.660;19.338;2023-08-31T15:44:20;2.28;;;1.75;;
40951;SDS011;26682;51.660;19.338;2023-08-31T15:47:03;5.03;;;1.75;;
40951;SDS011;26682;51.660;19.338;2023-08-31T15:49:45;2.13;;;1.75;;
40951;SDS011;26682;51.660;19.338;2023-08-31T15:52:28;2.17;;;1.80;;
40951;SDS011;26682;51.660;19.338;2023-08-31T15:55:10;1.90;;;1.70;;
40951;SDS011;26682;51.660;19.338;2023-08-31T15:57:53;2.63;;;1.60;;
40951;SDS011;26682;51.660;19.338;2023-08-31T16:00:35;2.08;;;1.52;;
40951;SDS011;26682;51.660;19.338;2023-08-31T16:03:18;3.50;;;2.15;;
40951;SDS011;26682;51.660;19.338;2023-08-31T16:06:01;4.95;;;1.90;;
40951;SDS011;26682;51.660;19.338;2023-08-31T16:08:46;2.43;;;1.67;;
40951;SDS011;26682;51.660;19.338;2023-08-31T16:11:28;5.43;;;1.63;;
40951;SDS011;26682;51.660;19.338;2023-08-31T16:14:11;2.30;;;1.83;;
40951;SDS011;26682;51.660;19.338;2023-08-31T16:16:54;2.83;;;1.75;;
40951;SDS011;26682;51.660;19.338;2023-08-31T16:19:37;3.65;;;1.70;;
40951;SDS011;26682;51.660;19.338;2023-08-31T16:22:19;2.47;;;2.20;;
40951;SDS011;26682;51.660;19.338;2023-08-31T16:25:02;2.53;;;1.80;;